Iqaluit

Airport
ICAO code: 
CYFB
Summary
ICAO Region: 
NAM
Territory: 
Location: 
Iqaluit, Nunavut,
Coordinates: 
Aerial View: 
63° 45' 15.544" N, 68° 33' 1.348" W
Airport CFIT: 
Altimeter Temperature Error Correction
Airport WX: 
Low Level Turbulence
Metar
Observation
CYFB 272000Z 07011G19KT 3SM -SN DRSN SCT022 OVC038 M04/M08 A2974 RMK SC4SC4 SLP077
Station
Iqaluit, N. W. T.
Date/Time
2021-11-27 20:00:00
Wind direction
70°
Wind speed
11 kts
Lowest cloud amount
scattered clouds
Temperature
-4°C
Dew point
-8°C
Humidity
73%
Weather condition
light drifting

Description

Airport serving Iqaluit, Nunavut.

Climatology

Tundra climate (Köppen climate classification ET) - warmest month has an average temperature of 0 - 10 degrees C.

Runways

Designator Length Width Surface Rops
17/35 2623 61 ASP Yes/Yes
Airport map: 
Aerial View: 

SKYbrary Partners:

Safety knowledge contributed by: